Beech Creek, Kentucky
Current Conditions -  °F | °C
As of 11:55 AM on Monday 24 Nov 2014 (Local Time) from K2I0 Reporting Station
Overcast Overcast  
Wind Chill: 43°   Ceiling: 3400
Heat Index: 50°   Visibility: 10mi
Dew Point: 37°   Wind: 20mph
Humidity: 62%   Direction: 260°W
Pressure: 29.75"   Gusts: 25mph
Location:  37.18°N, 87.06°W
Report Text: K2I0 241755Z AUTO 26017G22KT 10SM OVC034 10/03 A2975 RMK AO2 T00990030 10166 20075
Loading
Personal Weather Stations






























Interactive Weather Map New forecast layout! Learn more

10-Day Weather Forecast

Advertisements
Track Severe Weather on mobile